sensor_id;sensor_type;location;lat;lon;timestamp;pressure;altitude;pressure_sealevel;temperature;humidity
15604;BME280;7902;49.042;9.092;2023-05-08T00:00:27;99336.63;;;20.25;64.80
15604;BME280;7902;49.042;9.092;2023-05-08T00:02:53;99345.81;;;20.23;65.05
15604;BME280;7902;49.042;9.092;2023-05-08T00:05:19;99336.13;;;20.22;65.46
15604;BME280;7902;49.042;9.092;2023-05-08T00:07:45;99340.63;;;20.21;65.33
15604;BME280;7902;49.042;9.092;2023-05-08T00:10:11;99336.13;;;20.22;64.89
15604;BME280;7902;49.042;9.092;2023-05-08T00:12:37;99345.31;;;20.19;65.34
15604;BME280;7902;49.042;9.092;2023-05-08T00:15:03;99344.63;;;20.17;65.62
15604;BME280;7902;49.042;9.092;2023-05-08T00:17:30;99344.97;;;20.14;65.22
15604;BME280;7902;49.042;9.092;2023-05-08T00:19:56;99339.47;;;20.15;64.97
15604;BME280;7902;49.042;9.092;2023-05-08T00:22:22;99342.63;;;20.11;65.75
15604;BME280;7902;49.042;9.092;2023-05-08T00:24:48;99336.31;;;20.12;65.36
15604;BME280;7902;49.042;9.092;2023-05-08T00:27:14;99347.97;;;20.11;65.74
15604;BME280;7902;49.042;9.092;2023-05-08T00:29:40;99344.97;;;20.14;65.11
15604;BME280;7902;49.042;9.092;2023-05-08T00:32:06;99344.97;;;20.14;65.21
15604;BME280;7902;49.042;9.092;2023-05-08T00:34:32;99340.31;;;20.08;65.31
15604;BME280;7902;49.042;9.092;2023-05-08T00:36:58;99349.28;;;20.07;65.81
15604;BME280;7902;49.042;9.092;2023-05-08T00:39:25;99345.63;;;20.08;65.34
15604;BME280;7902;49.042;9.092;2023-05-08T00:41:51;99348.78;;;20.11;65.19
15604;BME280;7902;49.042;9.092;2023-05-08T00:44:16;99344.81;;;20.07;65.69
15604;BME280;7902;49.042;9.092;2023-05-08T00:46:43;99345.63;;;20.08;65.22
15604;BME280;7902;49.042;9.092;2023-05-08T00:49:10;99346.81;;;20.05;65.34
15604;BME280;7902;49.042;9.092;2023-05-08T00:51:41;99341.63;;;20.04;65.49
15604;BME280;7902;49.042;9.092;2023-05-08T00:54:09;99352.63;;;20.09;65.35
15604;BME280;7902;49.042;9.092;2023-05-08T00:56:36;99349.28;;;20.07;64.89
15604;BME280;7902;49.042;9.092;2023-05-08T00:59:11;99348.97;;;20.10;64.94
15604;BME280;7902;49.042;9.092;2023-05-08T01:01:38;99348.47;;;20.06;65.29
15604;BME280;7902;49.042;9.092;2023-05-08T01:04:05;99346.63;;;20.07;65.25
15604;BME280;7902;49.042;9.092;2023-05-08T01:06:32;99354.28;;;20.02;65.23
15604;BME280;7902;49.042;9.092;2023-05-08T01:08:59;99350.28;;;20.06;64.78
15604;BME280;7902;49.042;9.092;2023-05-08T01:16:54;99358.97;;;20.00;65.04
15604;BME280;7902;49.042;9.092;2023-05-08T01:21:59;99355.97;;;20.03;65.21
15604;BME280;7902;49.042;9.092;2023-05-08T01:32:45;99361.63;;;20.08;65.07
15604;BME280;7902;49.042;9.092;2023-05-08T01:35:23;99368.78;;;20.07;65.16
15604;BME280;7902;49.042;9.092;2023-05-08T01:38:05;99379.31;;;20.09;64.45
15604;BME280;7902;49.042;9.092;2023-05-08T01:40:34;99379.44;;;20.07;65.26
15604;BME280;7902;49.042;9.092;2023-05-08T01:46:25;99384.44;;;20.02;65.00
15604;BME280;7902;49.042;9.092;2023-05-08T01:52:04;99388.94;;;20.02;65.51
15604;BME280;7902;49.042;9.092;2023-05-08T01:54:42;99392.28;;;19.96;65.28
15604;BME280;7902;49.042;9.092;2023-05-08T01:57:10;99388.28;;;20.00;65.93
15604;BME280;7902;49.042;9.092;2023-05-08T01:59:37;99389.63;;;20.04;65.67
15604;BME280;7902;49.042;9.092;2023-05-08T02:02:07;99389.28;;;20.07;65.26
15604;BME280;7902;49.042;9.092;2023-05-08T02:04:34;99384.78;;;20.07;65.22
15604;BME280;7902;49.042;9.092;2023-05-08T02:07:01;99385.63;;;20.08;65.26
15604;BME280;7902;49.042;9.092;2023-05-08T02:09:28;99391.94;;;20.07;65.21
15604;BME280;7902;49.042;9.092;2023-05-08T02:11:57;99380.28;;;20.08;65.59
15604;BME280;7902;49.042;9.092;2023-05-08T02:14:26;99386.81;;;20.13;64.94
15604;BME280;7902;49.042;9.092;2023-05-08T02:16:54;99388.13;;;20.09;64.94
15604;BME280;7902;49.042;9.092;2023-05-08T02:19:24;99386.81;;;20.05;65.07
15604;BME280;7902;49.042;9.092;2023-05-08T02:21:53;99389.13;;;20.08;65.16
15604;BME280;7902;49.042;9.092;2023-05-08T02:24:19;99383.16;;;20.14;64.57
15604;BME280;7902;49.042;9.092;2023-05-08T02:26:47;99390.31;;;20.14;65.34
15604;BME280;7902;49.042;9.092;2023-05-08T02:29:14;99383.66;;;20.10;65.21
15604;BME280;7902;49.042;9.092;2023-05-08T02:31:41;99390.13;;;20.07;65.13
15604;BME280;7902;49.042;9.092;2023-05-08T02:34:09;99386.31;;;20.10;65.10
15604;BME280;7902;49.042;9.092;2023-05-08T02:36:37;99391.44;;;20.03;65.29
15604;BME280;7902;49.042;9.092;2023-05-08T02:39:05;99392.44;;;20.02;65.69
15604;BME280;7902;49.042;9.092;2023-05-08T02:41:34;99391.94;;;19.99;65.39
15604;BME280;7902;49.042;9.092;2023-05-08T02:44:01;99384.94;;;19.98;64.90
15604;BME280;7902;49.042;9.092;2023-05-08T02:46:47;99387.59;;;19.98;65.18
15604;BME280;7902;49.042;9.092;2023-05-08T02:49:37;99392.28;;;19.96;65.65
15604;BME280;7902;49.042;9.092;2023-05-08T02:52:11;99387.25;;;19.93;65.42
15604;BME280;7902;49.042;9.092;2023-05-08T02:54:56;99394.94;;;19.96;65.79
15604;BME280;7902;49.042;9.092;2023-05-08T03:00:03;99402.94;;;19.96;65.45
15604;BME280;7902;49.042;9.092;2023-05-08T03:02:42;99397.97;;;20.01;65.51
15604;BME280;7902;49.042;9.092;2023-05-08T03:05:25;99398.25;;;19.98;65.71
15604;BME280;7902;49.042;9.092;2023-05-08T03:07:56;99397.63;;;20.04;65.23
15604;BME280;7902;49.042;9.092;2023-05-08T03:10:32;99405.28;;;19.99;65.44
15604;BME280;7902;49.042;9.092;2023-05-08T03:12:59;99403.59;;;19.98;65.26
15604;BME280;7902;49.042;9.092;2023-05-08T03:15:33;99395.44;;;19.99;65.43
15604;BME280;7902;49.042;9.092;2023-05-08T03:18:05;99393.44;;;19.93;65.29
15604;BME280;7902;49.042;9.092;2023-05-08T03:20:36;99394.94;;;19.96;65.46
15604;BME280;7902;49.042;9.092;2023-05-08T03:23:03;99384.94;;;19.98;65.12
15604;BME280;7902;49.042;9.092;2023-05-08T03:25:32;99388.94;;;20.02;65.42
15604;BME280;7902;49.042;9.092;2023-05-08T03:28:00;99387.94;;;19.95;65.42
15604;BME280;7902;49.042;9.092;2023-05-08T03:30:30;99387.28;;;20.01;64.81
15604;BME280;7902;49.042;9.092;2023-05-08T03:32:57;99384.59;;;19.93;65.49
15604;BME280;7902;49.042;9.092;2023-05-08T03:35:26;99383.94;;;19.91;65.67
15604;BME280;7902;49.042;9.092;2023-05-08T03:37:53;99377.78;;;19.90;65.62
15604;BME280;7902;49.042;9.092;2023-05-08T03:40:19;99378.59;;;19.91;65.00
15604;BME280;7902;49.042;9.092;2023-05-08T03:42:46;99376.78;;;19.91;65.34
15604;BME280;7902;49.042;9.092;2023-05-08T03:45:12;99387.44;;;19.91;65.58
15604;BME280;7902;49.042;9.092;2023-05-08T03:47:39;99377.94;;;19.89;65.64
15604;BME280;7902;49.042;9.092;2023-05-08T03:50:06;99379.94;;;19.87;65.69
15604;BME280;7902;49.042;9.092;2023-05-08T03:52:33;99382.91;;;19.92;65.37
15604;BME280;7902;49.042;9.092;2023-05-08T03:54:59;99389.28;;;19.91;65.34
15604;BME280;7902;49.042;9.092;2023-05-08T03:57:29;99388.44;;;19.82;66.12
15604;BME280;7902;49.042;9.092;2023-05-08T04:00:20;99387.25;;;19.85;66.14
15604;BME280;7902;49.042;9.092;2023-05-08T04:06:23;99385.75;;;19.82;65.82
15604;BME280;7902;49.042;9.092;2023-05-08T04:09:00;99394.56;;;19.83;66.20
15604;BME280;7902;49.042;9.092;2023-05-08T04:11:55;99396.56;;;19.81;65.92
15604;BME280;7902;49.042;9.092;2023-05-08T04:14:26;99395.59;;;19.82;65.67
15604;BME280;7902;49.042;9.092;2023-05-08T04:16:59;99389.56;;;19.80;65.67
15604;BME280;7902;49.042;9.092;2023-05-08T04:19:28;99394.06;;;19.79;66.10
15604;BME280;7902;49.042;9.092;2023-05-08T04:22:02;99395.72;;;19.80;65.48
15604;BME280;7902;49.042;9.092;2023-05-08T04:24:30;99395.41;;;19.83;65.62
15604;BME280;7902;49.042;9.092;2023-05-08T04:26:59;99402.19;;;19.78;65.74
15604;BME280;7902;49.042;9.092;2023-05-08T04:29:25;99401.06;;;19.80;65.60
15604;BME280;7902;49.042;9.092;2023-05-08T04:31:52;99403.56;;;19.82;65.92
15604;BME280;7902;49.042;9.092;2023-05-08T04:34:18;99406.25;;;19.82;66.00
15604;BME280;7902;49.042;9.092;2023-05-08T04:36:44;99405.75;;;19.86;66.16
15604;BME280;7902;49.042;9.092;2023-05-08T04:39:10;99403.09;;;19.86;65.63
15604;BME280;7902;49.042;9.092;2023-05-08T04:41:36;99408.41;;;19.86;65.51
15604;BME280;7902;49.042;9.092;2023-05-08T04:44:02;99411.91;;;19.87;65.39
15604;BME280;7902;49.042;9.092;2023-05-08T04:46:28;99410.06;;;19.87;65.59
15604;BME280;7902;49.042;9.092;2023-05-08T04:48:54;99413.56;;;19.88;65.20
15604;BME280;7902;49.042;9.092;2023-05-08T04:51:20;99419.22;;;19.85;65.83
15604;BME280;7902;49.042;9.092;2023-05-08T04:53:46;99425.25;;;19.87;65.55
15604;BME280;7902;49.042;9.092;2023-05-08T04:56:12;99428.91;;;19.86;65.55
15604;BME280;7902;49.042;9.092;2023-05-08T04:58:38;99427.38;;;19.83;66.06
15604;BME280;7902;49.042;9.092;2023-05-08T05:01:04;99431.56;;;19.86;65.91
15604;BME280;7902;49.042;9.092;2023-05-08T05:03:30;99434.88;;;19.80;66.11
15604;BME280;7902;49.042;9.092;2023-05-08T05:05:59;99443.06;;;19.86;65.97
15604;BME280;7902;49.042;9.092;2023-05-08T05:08:26;99438.88;;;19.84;65.94
15604;BME280;7902;49.042;9.092;2023-05-08T05:10:51;99442.38;;;19.84;65.55
15604;BME280;7902;49.042;9.092;2023-05-08T05:13:18;99440.06;;;19.89;65.74
15604;BME280;7902;49.042;9.092;2023-05-08T05:15:44;99446.88;;;19.92;65.31
15604;BME280;7902;49.042;9.092;2023-05-08T05:18:10;99449.22;;;19.87;65.64
15604;BME280;7902;49.042;9.092;2023-05-08T05:20:36;99441.25;;;19.95;65.41
15604;BME280;7902;49.042;9.092;2023-05-08T05:23:02;99446.88;;;19.92;65.18
15604;BME280;7902;49.042;9.092;2023-05-08T05:25:29;99449.25;;;19.95;65.90
15604;BME280;7902;49.042;9.092;2023-05-08T05:27:55;99451.75;;;19.96;66.15
15604;BME280;7902;49.042;9.092;2023-05-08T05:30:21;99452.75;;;19.95;65.34
15604;BME280;7902;49.042;9.092;2023-05-08T05:32:47;99448.91;;;19.98;65.83
15604;BME280;7902;49.042;9.092;2023-05-08T05:35:13;99455.56;;;19.94;66.11
15604;BME280;7902;49.042;9.092;2023-05-08T05:37:39;99460.56;;;19.97;65.31
15604;BME280;7902;49.042;9.092;2023-05-08T05:40:06;99460.91;;;20.02;65.47
15604;BME280;7902;49.042;9.092;2023-05-08T05:42:32;99462.25;;;19.98;65.86
15604;BME280;7902;49.042;9.092;2023-05-08T05:44:58;99458.59;;;19.99;65.91
15604;BME280;7902;49.042;9.092;2023-05-08T05:47:24;99464.75;;;19.99;65.71
15604;BME280;7902;49.042;9.092;2023-05-08T05:49:49;99464.41;;;20.02;65.87
15604;BME280;7902;49.042;9.092;2023-05-08T05:52:15;99457.94;;;20.05;65.95
15604;BME280;7902;49.042;9.092;2023-05-08T05:54:41;99462.25;;;20.06;65.54
15604;BME280;7902;49.042;9.092;2023-05-08T05:57:07;99460.28;;;20.08;65.55
15604;BME280;7902;49.042;9.092;2023-05-08T05:59:33;99470.25;;;20.06;65.13
15604;BME280;7902;49.042;9.092;2023-05-08T06:01:59;99466.59;;;20.07;65.55
15604;BME280;7902;49.042;9.092;2023-05-08T06:04:25;99463.97;;;20.15;65.29
15604;BME280;7902;49.042;9.092;2023-05-08T06:06:51;99473.59;;;20.08;65.92
15604;BME280;7902;49.042;9.092;2023-05-08T06:09:17;99464.63;;;20.17;65.13
15604;BME280;7902;49.042;9.092;2023-05-08T06:11:43;99471.44;;;20.11;65.51
15604;BME280;7902;49.042;9.092;2023-05-08T06:14:08;99472.47;;;20.19;65.49
15604;BME280;7902;49.042;9.092;2023-05-08T06:16:35;99474.16;;;20.20;65.57
15604;BME280;7902;49.042;9.092;2023-05-08T06:19:01;99473.31;;;20.19;65.73
15604;BME280;7902;49.042;9.092;2023-05-08T06:21:27;99476.63;;;20.21;65.85
15604;BME280;7902;49.042;9.092;2023-05-08T06:23:53;99473.84;;;20.31;65.10
15604;BME280;7902;49.042;9.092;2023-05-08T06:26:19;99481.34;;;20.35;64.42
15604;BME280;7902;49.042;9.092;2023-05-08T06:28:45;99473.00;;;20.30;65.15
15604;BME280;7902;49.042;9.092;2023-05-08T06:31:11;99478.03;;;20.33;65.85
15604;BME280;7902;49.042;9.092;2023-05-08T06:33:37;99474.53;;;20.33;65.57
15604;BME280;7902;49.042;9.092;2023-05-08T06:36:04;99480.03;;;20.31;65.63
15604;BME280;7902;49.042;9.092;2023-05-08T06:38:31;99472.88;;;20.40;65.62
15604;BME280;7902;49.042;9.092;2023-05-08T06:40:56;99484.06;;;20.43;65.36
15604;BME280;7902;49.042;9.092;2023-05-08T06:43:22;99481.22;;;20.45;65.32
15604;BME280;7902;49.042;9.092;2023-05-08T06:45:48;99485.22;;;20.49;65.65
15604;BME280;7902;49.042;9.092;2023-05-08T06:48:14;99472.22;;;20.46;65.51
15604;BME280;7902;49.042;9.092;2023-05-08T06:50:40;99470.53;;;20.45;64.38
15604;BME280;7902;49.042;9.092;2023-05-08T06:53:07;99472.41;;;20.52;65.07
15604;BME280;7902;49.042;9.092;2023-05-08T06:55:34;99478.72;;;20.43;65.07
15604;BME280;7902;49.042;9.092;2023-05-08T06:58:00;99475.88;;;20.45;64.65
15604;BME280;7902;49.042;9.092;2023-05-08T07:00:26;99476.72;;;20.45;64.54
15604;BME280;7902;49.042;9.092;2023-05-08T07:02:52;99480.06;;;20.47;63.92
15604;BME280;7902;49.042;9.092;2023-05-08T07:05:18;99481.22;;;20.53;63.72
15604;BME280;7902;49.042;9.092;2023-05-08T07:07:44;99482.22;;;20.52;65.09
15604;BME280;7902;49.042;9.092;2023-05-08T07:10:10;99483.22;;;20.51;64.10
15604;BME280;7902;49.042;9.092;2023-05-08T07:12:36;99479.22;;;20.55;64.02
15604;BME280;7902;49.042;9.092;2023-05-08T07:15:03;99479.56;;;20.52;64.29
15604;BME280;7902;49.042;9.092;2023-05-08T07:17:28;99477.06;;;20.50;64.88
15604;BME280;7902;49.042;9.092;2023-05-08T07:19:55;99478.72;;;20.59;64.51
15604;BME280;7902;49.042;9.092;2023-05-08T07:22:21;99490.22;;;20.52;65.47
15604;BME280;7902;49.042;9.092;2023-05-08T07:24:47;99484.56;;;20.55;64.18
15604;BME280;7902;49.042;9.092;2023-05-08T07:27:13;99489.06;;;20.54;65.72
15604;BME280;7902;49.042;9.092;2023-05-08T07:29:39;99485.91;;;20.51;63.98
15604;BME280;7902;49.042;9.092;2023-05-08T07:32:06;99491.06;;;20.52;64.02
15604;BME280;7902;49.042;9.092;2023-05-08T07:34:32;99490.41;;;20.50;64.10
15604;BME280;7902;49.042;9.092;2023-05-08T07:36:59;99494.56;;;20.53;64.57
15604;BME280;7902;49.042;9.092;2023-05-08T07:39:25;99498.06;;;20.53;64.99
15604;BME280;7902;49.042;9.092;2023-05-08T07:41:51;99496.75;;;20.57;65.82
15604;BME280;7902;49.042;9.092;2023-05-08T07:44:17;99500.41;;;20.56;65.65
15604;BME280;7902;49.042;9.092;2023-05-08T07:46:43;99497.91;;;20.55;65.85
15604;BME280;7902;49.042;9.092;2023-05-08T07:49:09;99496.22;;;20.54;64.95
15604;BME280;7902;49.042;9.092;2023-05-08T07:51:34;99501.41;;;20.55;64.55
15604;BME280;7902;49.042;9.092;2023-05-08T07:54:00;99507.09;;;20.52;65.62
15604;BME280;7902;49.042;9.092;2023-05-08T07:56:26;99500.06;;;20.51;64.53
15604;BME280;7902;49.042;9.092;2023-05-08T07:58:53;99497.75;;;20.56;65.10
15604;BME280;7902;49.042;9.092;2023-05-08T08:01:18;99503.91;;;20.57;64.34
15604;BME280;7902;49.042;9.092;2023-05-08T08:03:45;99506.91;;;20.54;64.71
15604;BME280;7902;49.042;9.092;2023-05-08T08:06:11;99510.75;;;20.59;64.74
15604;BME280;7902;49.042;9.092;2023-05-08T08:08:37;99507.44;;;20.57;65.19
15604;BME280;7902;49.042;9.092;2023-05-08T08:11:05;99506.41;;;20.50;64.81
15604;BME280;7902;49.042;9.092;2023-05-08T08:13:31;99513.06;;;20.54;65.29
15604;BME280;7902;49.042;9.092;2023-05-08T08:15:58;99508.22;;;20.58;64.95
15604;BME280;7902;49.042;9.092;2023-05-08T08:18:24;99511.94;;;20.57;64.49
15604;BME280;7902;49.042;9.092;2023-05-08T08:20:50;99512.06;;;20.55;65.39
15604;BME280;7902;49.042;9.092;2023-05-08T08:23:16;99511.88;;;20.49;65.31
15604;BME280;7902;49.042;9.092;2023-05-08T08:25:42;99514.91;;;20.54;64.97
15604;BME280;7902;49.042;9.092;2023-05-08T08:28:07;99511.41;;;20.53;65.32
15604;BME280;7902;49.042;9.092;2023-05-08T08:30:33;99514.25;;;20.52;64.29
15604;BME280;7902;49.042;9.092;2023-05-08T08:32:59;99507.03;;;20.44;64.87
15604;BME280;7902;49.042;9.092;2023-05-08T08:35:31;99511.72;;;20.42;65.66
15604;BME280;7902;49.042;9.092;2023-05-08T08:37:57;99511.53;;;20.44;65.18
15604;BME280;7902;49.042;9.092;2023-05-08T08:40:23;99507.03;;;20.44;64.63
15604;BME280;7902;49.042;9.092;2023-05-08T08:42:49;99503.56;;;20.52;64.58
15604;BME280;7902;49.042;9.092;2023-05-08T08:45:15;99514.06;;;20.45;64.65
15604;BME280;7902;49.042;9.092;2023-05-08T08:47:43;99512.06;;;20.47;64.63
15604;BME280;7902;49.042;9.092;2023-05-08T08:50:12;99511.53;;;20.36;65.56
15604;BME280;7902;49.042;9.092;2023-05-08T08:52:46;99505.56;;;20.42;65.62
15604;BME280;7902;49.042;9.092;2023-05-08T08:55:15;99516.72;;;20.37;67.26
15604;BME280;7902;49.042;9.092;2023-05-08T09:00:37;99517.41;;;20.47;64.70
15604;BME280;7902;49.042;9.092;2023-05-08T09:03:04;99512.91;;;20.48;65.67
15604;BME280;7902;49.042;9.092;2023-05-08T09:05:31;99522.06;;;20.53;65.06
15604;BME280;7902;49.042;9.092;2023-05-08T09:07:58;99516.72;;;20.53;65.42
15604;BME280;7902;49.042;9.092;2023-05-08T09:10:24;99511.72;;;20.50;65.77
15604;BME280;7902;49.042;9.092;2023-05-08T09:12:50;99521.72;;;20.40;66.59
15604;BME280;7902;49.042;9.092;2023-05-08T09:15:16;99523.38;;;20.41;66.36
15604;BME280;7902;49.042;9.092;2023-05-08T09:17:42;99513.88;;;20.39;67.09
15604;BME280;7902;49.042;9.092;2023-05-08T09:20:10;99527.75;;;20.50;66.83
15604;BME280;7902;49.042;9.092;2023-05-08T09:22:36;99522.06;;;20.45;67.13
15604;BME280;7902;49.042;9.092;2023-05-08T09:25:02;99526.06;;;20.49;67.45
15604;BME280;7902;49.042;9.092;2023-05-08T09:27:31;99521.41;;;20.51;66.92
15604;BME280;7902;49.042;9.092;2023-05-08T09:30:07;99520.56;;;20.51;67.28
15604;BME280;7902;49.042;9.092;2023-05-08T09:32:37;99520.56;;;20.51;67.28
15604;BME280;7902;49.042;9.092;2023-05-08T09:35:05;99520.09;;;20.55;67.20
15604;BME280;7902;49.042;9.092;2023-05-08T09:37:31;99518.25;;;20.48;67.83
15604;BME280;7902;49.042;9.092;2023-05-08T09:42:43;99524.25;;;20.58;66.33
15604;BME280;7902;49.042;9.092;2023-05-08T09:45:09;99528.78;;;20.57;67.16
15604;BME280;7902;49.042;9.092;2023-05-08T09:47:36;99528.38;;;20.44;66.95
15604;BME280;7902;49.042;9.092;2023-05-08T09:50:09;99530.91;;;20.54;66.92
15604;BME280;7902;49.042;9.092;2023-05-08T09:52:37;99531.09;;;20.52;66.89
15604;BME280;7902;49.042;9.092;2023-05-08T09:55:08;99526.75;;;20.59;65.95
15604;BME280;7902;49.042;9.092;2023-05-08T09:57:37;99532.94;;;20.60;66.52
15604;BME280;7902;49.042;9.092;2023-05-08T10:00:05;99534.25;;;20.64;66.51
15604;BME280;7902;49.042;9.092;2023-05-08T10:02:32;99537.91;;;20.63;66.17
15604;BME280;7902;49.042;9.092;2023-05-08T10:04:58;99536.28;;;20.62;67.02
15604;BME280;7902;49.042;9.092;2023-05-08T10:07:29;99531.41;;;20.49;66.42
15604;BME280;7902;49.042;9.092;2023-05-08T10:10:00;99533.25;;;20.57;66.08
15604;BME280;7902;49.042;9.092;2023-05-08T10:12:27;99537.09;;;20.54;66.91
15604;BME280;7902;49.042;9.092;2023-05-08T10:14:53;99529.72;;;20.48;67.54
15604;BME280;7902;49.042;9.092;2023-05-08T10:18:01;99532.09;;;20.59;67.54
15604;BME280;7902;49.042;9.092;2023-05-08T10:20:18;99541.44;;;20.64;66.63
15604;BME280;7902;49.042;9.092;2023-05-08T10:22:47;99534.44;;;20.71;66.63
15604;BME280;7902;49.042;9.092;2023-05-08T10:25:16;99533.94;;;20.67;67.29
15604;BME280;7902;49.042;9.092;2023-05-08T10:27:58;99532.63;;;20.79;65.74
15604;BME280;7902;49.042;9.092;2023-05-08T10:30:26;99531.44;;;20.74;66.89
15604;BME280;7902;49.042;9.092;2023-05-08T10:32:53;99533.13;;;20.67;67.24
15604;BME280;7902;49.042;9.092;2023-05-08T10:35:21;99535.28;;;20.79;66.47
15604;BME280;7902;49.042;9.092;2023-05-08T10:37:48;99534.09;;;20.74;67.25
15604;BME280;7902;49.042;9.092;2023-05-08T10:40:15;99529.47;;;20.76;66.05
15604;BME280;7902;49.042;9.092;2023-05-08T10:42:42;99526.41;;;20.63;66.79
15604;BME280;7902;49.042;9.092;2023-05-08T10:45:08;99529.59;;;20.74;65.54
15604;BME280;7902;49.042;9.092;2023-05-08T10:47:50;99527.78;;;20.83;65.98
15604;BME280;7902;49.042;9.092;2023-05-08T10:50:38;99532.28;;;20.82;66.20
15604;BME280;7902;49.042;9.092;2023-05-08T10:53:18;99529.78;;;20.73;66.55
15604;BME280;7902;49.042;9.092;2023-05-08T10:55:47;99528.28;;;20.70;66.35
15604;BME280;7902;49.042;9.092;2023-05-08T10:58:28;99526.09;;;20.82;66.25
15604;BME280;7902;49.042;9.092;2023-05-08T11:03:36;99522.28;;;20.76;65.07
15604;BME280;7902;49.042;9.092;2023-05-08T11:06:03;99515.59;;;20.72;65.66
15604;BME280;7902;49.042;9.092;2023-05-08T11:08:30;99519.44;;;20.78;65.48
15604;BME280;7902;49.042;9.092;2023-05-08T11:13:33;99519.78;;;20.75;65.36
15604;BME280;7902;49.042;9.092;2023-05-08T11:15:59;99521.75;;;20.73;64.82
15604;BME280;7902;49.042;9.092;2023-05-08T11:18:26;99522.59;;;20.73;64.78
15604;BME280;7902;49.042;9.092;2023-05-08T11:21:13;99519.78;;;20.75;64.65
15604;BME280;7902;49.042;9.092;2023-05-08T11:23:39;99518.28;;;20.80;64.90
15604;BME280;7902;49.042;9.092;2023-05-08T11:26:12;99514.78;;;20.80;64.66
15604;BME280;7902;49.042;9.092;2023-05-08T11:28:39;99515.75;;;20.87;64.02
15604;BME280;7902;49.042;9.092;2023-05-08T11:31:07;99512.44;;;20.85;64.72
15604;BME280;7902;49.042;9.092;2023-05-08T11:33:36;99513.44;;;20.84;64.16
15604;BME280;7902;49.042;9.092;2023-05-08T11:36:16;99511.41;;;20.86;64.33
15604;BME280;7902;49.042;9.092;2023-05-08T11:39:04;99516.44;;;20.89;64.49
15604;BME280;7902;49.042;9.092;2023-05-08T11:41:30;99497.41;;;20.84;64.32
15604;BME280;7902;49.042;9.092;2023-05-08T11:46:37;99511.41;;;20.86;63.74
15604;BME280;7902;49.042;9.092;2023-05-08T11:49:05;99510.59;;;20.85;64.01
15604;BME280;7902;49.042;9.092;2023-05-08T11:51:32;99504.75;;;20.98;63.75
15604;BME280;7902;49.042;9.092;2023-05-08T11:54:01;99504.09;;;20.88;64.05
15604;BME280;7902;49.042;9.092;2023-05-08T11:56:27;99495.41;;;20.86;63.39
15604;BME280;7902;49.042;9.092;2023-05-08T11:59:01;99493.41;;;20.88;63.82
15604;BME280;7902;49.042;9.092;2023-05-08T12:01:27;99495.25;;;20.79;63.30
15604;BME280;7902;49.042;9.092;2023-05-08T12:04:07;99503.75;;;20.83;63.63
15604;BME280;7902;49.042;9.092;2023-05-08T12:06:34;99507.94;;;20.85;62.94
15604;BME280;7902;49.042;9.092;2023-05-08T12:09:02;99503.25;;;20.87;62.83
15604;BME280;7902;49.042;9.092;2023-05-08T12:11:30;99503.44;;;20.94;63.07
15604;BME280;7902;49.042;9.092;2023-05-08T12:13:56;99500.09;;;20.92;63.01
15604;BME280;7902;49.042;9.092;2023-05-08T12:16:22;99506.06;;;20.86;63.42
15604;BME280;7902;49.042;9.092;2023-05-08T12:18:50;99504.78;;;20.90;63.43
15604;BME280;7902;49.042;9.092;2023-05-08T12:21:17;99502.25;;;20.96;63.16
15604;BME280;7902;49.042;9.092;2023-05-08T12:23:43;99500.56;;;20.95;62.92
15604;BME280;7902;49.042;9.092;2023-05-08T12:26:09;99500.56;;;20.95;63.03
15604;BME280;7902;49.042;9.092;2023-05-08T12:28:37;99498.09;;;21.02;62.48
15604;BME280;7902;49.042;9.092;2023-05-08T12:31:03;99496.75;;;20.90;63.49
15604;BME280;7902;49.042;9.092;2023-05-08T12:33:29;99502.75;;;20.92;62.82
15604;BME280;7902;49.042;9.092;2023-05-08T12:35:55;99506.56;;;21.06;63.14
15604;BME280;7902;49.042;9.092;2023-05-08T12:38:25;99497.06;;;21.11;62.41
15604;BME280;7902;49.042;9.092;2023-05-08T12:40:52;99500.72;;;21.10;62.58
15604;BME280;7902;49.042;9.092;2023-05-08T12:43:20;99494.75;;;21.08;62.09
15604;BME280;7902;49.042;9.092;2023-05-08T12:45:49;99492.91;;;21.00;62.46
15604;BME280;7902;49.042;9.092;2023-05-08T12:48:17;99486.38;;;21.11;62.43
15604;BME280;7902;49.042;9.092;2023-05-08T12:50:44;99487.56;;;21.09;62.31
15604;BME280;7902;49.042;9.092;2023-05-08T12:53:18;99482.41;;;20.99;62.29
15604;BME280;7902;49.042;9.092;2023-05-08T12:55:59;99488.06;;;21.04;62.09
15604;BME280;7902;49.042;9.092;2023-05-08T12:58:27;99491.75;;;21.03;62.31
15604;BME280;7902;49.042;9.092;2023-05-08T13:01:04;99492.41;;;20.97;63.09
15604;BME280;7902;49.042;9.092;2023-05-08T13:03:30;99488.41;;;21.09;62.26
15604;BME280;7902;49.042;9.092;2023-05-08T13:05:57;99484.56;;;21.12;62.26
15604;BME280;7902;49.042;9.092;2023-05-08T13:08:33;99481.19;;;21.10;62.14
15604;BME280;7902;49.042;9.092;2023-05-08T13:11:01;99486.22;;;21.13;62.28
15604;BME280;7902;49.042;9.092;2023-05-08T13:13:29;99481.06;;;21.19;63.01
15604;BME280;7902;49.042;9.092;2023-05-08T13:15:56;99470.72;;;21.16;62.13
15604;BME280;7902;49.042;9.092;2023-05-08T13:18:26;99472.06;;;21.20;62.07
15604;BME280;7902;49.042;9.092;2023-05-08T13:20:55;99470.69;;;21.24;62.63
15604;BME280;7902;49.042;9.092;2023-05-08T13:23:22;99476.75;;;21.18;62.02
15604;BME280;7902;49.042;9.092;2023-05-08T13:25:48;99472.88;;;21.21;62.02
15604;BME280;7902;49.042;9.092;2023-05-08T13:28:14;99479.06;;;21.21;61.69
15604;BME280;7902;49.042;9.092;2023-05-08T13:30:40;99475.38;;;21.30;61.75
15604;BME280;7902;49.042;9.092;2023-05-08T13:33:06;99467.00;;;21.33;61.62
15604;BME280;7902;49.042;9.092;2023-05-08T13:35:32;99466.03;;;21.26;61.97
15604;BME280;7902;49.042;9.092;2023-05-08T13:37:59;99464.38;;;21.25;61.56
15604;BME280;7902;49.042;9.092;2023-05-08T13:40:25;99458.66;;;21.28;61.67
15604;BME280;7902;49.042;9.092;2023-05-08T13:42:51;99465.38;;;21.32;61.71
15604;BME280;7902;49.042;9.092;2023-05-08T13:45:17;99458.03;;;21.26;61.84
15604;BME280;7902;49.042;9.092;2023-05-08T13:47:47;99472.38;;;21.25;62.12
15604;BME280;7902;49.042;9.092;2023-05-08T13:50:14;99473.88;;;21.28;61.44
15604;BME280;7902;49.042;9.092;2023-05-08T13:52:41;99482.06;;;21.26;61.49
15604;BME280;7902;49.042;9.092;2023-05-08T13:55:09;99476.38;;;21.21;62.95
15604;BME280;7902;49.042;9.092;2023-05-08T13:57:35;99472.69;;;21.30;64.21